createdAt,value
2022-11-14T00:01:07.834Z,6.88
2022-11-14T00:03:52.981Z,6.92
2022-11-14T00:06:38.095Z,6.96
2022-11-14T00:09:27.484Z,7.02
2022-11-14T00:12:12.935Z,7.06
2022-11-14T00:14:57.960Z,7.09
2022-11-14T00:17:43.047Z,7.13
2022-11-14T00:20:28.223Z,7.14
2022-11-14T00:23:13.343Z,7.16
2022-11-14T00:25:58.686Z,7.17
2022-11-14T00:28:44.047Z,7.19
2022-11-14T00:31:28.970Z,7.22
2022-11-14T00:34:14.166Z,7.22
2022-11-14T00:36:59.623Z,7.21
2022-11-14T00:39:44.606Z,7.20
2022-11-14T00:42:29.906Z,7.19
2022-11-14T00:45:14.939Z,7.20
2022-11-14T00:48:00.271Z,7.22
2022-11-14T00:50:45.414Z,7.23
2022-11-14T00:53:30.929Z,7.24
2022-11-14T00:56:16.243Z,7.26
2022-11-14T00:59:01.529Z,7.27
2022-11-14T01:01:46.946Z,7.26
2022-11-14T01:04:31.944Z,7.26
2022-11-14T01:07:16.876Z,7.25
2022-11-14T01:10:01.895Z,7.22
2022-11-14T01:12:47.337Z,7.19
2022-11-14T01:15:32.615Z,7.14
2022-11-14T01:18:20.453Z,7.09
2022-11-14T01:21:10.845Z,7.05
2022-11-14T01:23:55.876Z,7.01
2022-11-14T01:26:40.977Z,6.95
2022-11-14T01:29:26.384Z,6.92
2022-11-14T01:32:11.764Z,6.86
2022-11-14T01:34:57.041Z,6.83
2022-11-14T01:37:42.438Z,6.83
2022-11-14T01:40:28.334Z,6.85
2022-11-14T01:43:19.630Z,6.83
2022-11-14T01:46:35.470Z,6.82
2022-11-14T01:49:24.346Z,6.78
2022-11-14T01:52:17.154Z,6.75
2022-11-14T01:55:07.184Z,6.72
2022-11-14T01:57:52.276Z,6.72
2022-11-14T02:00:38.040Z,6.72
2022-11-14T02:03:23.746Z,6.74
2022-11-14T02:06:13.029Z,6.78
2022-11-14T02:09:02.126Z,6.77
2022-11-14T02:11:47.320Z,6.79
2022-11-14T02:14:34.261Z,6.81
2022-11-14T02:17:29.499Z,6.83
2022-11-14T02:20:19.948Z,6.84
2022-11-14T02:23:05.146Z,6.85
2022-11-14T02:25:50.228Z,6.89
2022-11-14T02:28:35.384Z,6.92
2022-11-14T02:31:20.712Z,6.96
2022-11-14T02:34:06.088Z,6.99
2022-11-14T02:36:51.446Z,7.03
2022-11-14T02:39:36.428Z,7.08
2022-11-14T02:42:21.494Z,7.11
2022-11-14T02:45:07.685Z,7.13
2022-11-14T02:47:52.711Z,7.17
2022-11-14T02:50:38.333Z,7.18
2022-11-14T02:53:23.337Z,7.20
2022-11-14T02:56:08.274Z,7.21
2022-11-14T02:58:53.670Z,7.20
2022-11-14T03:01:38.702Z,7.21
2022-11-14T03:04:24.231Z,7.20
2022-11-14T03:07:09.078Z,7.21
2022-11-14T03:09:54.366Z,7.21
2022-11-14T03:12:39.778Z,7.21
2022-11-14T03:15:25.032Z,7.21
2022-11-14T03:18:10.058Z,7.21
2022-11-14T03:20:55.357Z,7.21
2022-11-14T03:23:40.929Z,7.21
2022-11-14T03:26:26.213Z,7.22
2022-11-14T03:29:11.264Z,7.22
2022-11-14T03:31:56.480Z,7.22
2022-11-14T03:34:42.652Z,7.22
2022-11-14T03:37:28.031Z,7.19
2022-11-14T03:40:13.158Z,7.16
2022-11-14T03:42:58.496Z,7.16
2022-11-14T03:45:44.463Z,7.16
2022-11-14T03:48:31.005Z,7.14
2022-11-14T03:51:16.467Z,7.14
2022-11-14T03:54:01.878Z,7.13
2022-11-14T03:56:47.199Z,7.12
2022-11-14T03:59:32.155Z,7.10
2022-11-14T04:02:17.182Z,7.08
2022-11-14T04:05:02.413Z,7.07
2022-11-14T04:07:47.758Z,7.07
2022-11-14T04:10:32.926Z,7.06
2022-11-14T04:13:17.976Z,7.05
2022-11-14T04:16:03.408Z,7.05
2022-11-14T04:18:48.337Z,7.06
2022-11-14T04:21:33.344Z,7.06
2022-11-14T04:24:18.298Z,7.05
2022-11-14T04:27:03.338Z,7.05
2022-11-14T04:29:48.578Z,7.05
2022-11-14T04:32:33.431Z,7.04
2022-11-14T04:35:18.846Z,7.02
2022-11-14T04:38:03.871Z,7.00
2022-11-14T04:40:52.514Z,6.96
2022-11-14T04:43:37.637Z,6.95
2022-11-14T04:46:22.630Z,6.94
2022-11-14T04:49:07.560Z,6.93
2022-11-14T04:51:52.763Z,6.91
2022-11-14T04:54:38.119Z,6.92
2022-11-14T04:57:23.250Z,6.90
2022-11-14T05:00:09.016Z,6.89
2022-11-14T05:02:54.075Z,6.88
2022-11-14T05:05:41.969Z,6.84
2022-11-14T05:08:27.803Z,6.84
2022-11-14T05:11:15.445Z,6.85
2022-11-14T05:14:00.620Z,6.88
2022-11-14T05:16:45.620Z,6.90
2022-11-14T05:19:30.546Z,6.91
2022-11-14T05:22:15.739Z,6.92
2022-11-14T05:25:01.171Z,6.91
2022-11-14T05:27:46.338Z,6.91
2022-11-14T05:30:31.585Z,6.89
2022-11-14T05:33:17.109Z,6.84
2022-11-14T05:36:07.027Z,6.81
2022-11-14T05:38:52.209Z,6.79
2022-11-14T05:41:37.220Z,6.75
2022-11-14T05:44:22.671Z,6.75
2022-11-14T05:47:07.644Z,6.73
2022-11-14T05:49:52.889Z,6.73
2022-11-14T05:52:37.900Z,6.70
2022-11-14T05:55:25.126Z,6.71
2022-11-14T05:58:10.507Z,6.70
2022-11-14T06:01:16.969Z,6.68
2022-11-14T06:04:01.920Z,6.70
2022-11-14T06:06:48.027Z,6.71
2022-11-14T06:09:33.553Z,6.72
2022-11-14T06:12:18.425Z,6.74
2022-11-14T06:15:04.031Z,6.77
2022-11-14T06:17:48.927Z,6.79
2022-11-14T06:20:34.257Z,6.81
2022-11-14T06:23:24.610Z,6.84
2022-11-14T06:26:21.090Z,6.86
2022-11-14T06:29:07.609Z,6.92
2022-11-14T06:31:52.579Z,6.94
2022-11-14T06:34:37.939Z,6.97
2022-11-14T06:37:23.040Z,6.98
2022-11-14T06:40:08.905Z,7.00
2022-11-14T06:42:56.953Z,7.04
2022-11-14T06:45:42.478Z,7.07
2022-11-14T06:48:28.222Z,7.10
2022-11-14T06:51:15.378Z,7.16
2022-11-14T06:54:00.441Z,7.27
2022-11-14T06:56:45.979Z,7.41
2022-11-14T06:59:31.475Z,7.48
2022-11-14T07:02:21.710Z,7.48
2022-11-14T07:05:07.373Z,7.48
2022-11-14T07:07:52.724Z,7.48
2022-11-14T07:10:37.726Z,7.46
2022-11-14T07:13:22.772Z,7.43
2022-11-14T07:16:07.857Z,7.38
2022-11-14T07:18:53.151Z,7.37
2022-11-14T07:21:38.407Z,7.40
2022-11-14T07:24:23.797Z,7.44
2022-11-14T07:27:12.116Z,7.48
2022-11-14T07:29:56.969Z,7.50
2022-11-14T07:32:42.139Z,7.55
2022-11-14T07:35:27.052Z,7.56
2022-11-14T07:38:12.046Z,7.59
2022-11-14T07:41:06.566Z,7.61
2022-11-14T07:43:52.022Z,7.68
2022-11-14T07:46:37.548Z,7.73
2022-11-14T07:49:22.681Z,7.79
2022-11-14T07:52:07.814Z,7.85
2022-11-14T07:54:52.922Z,7.87
2022-11-14T07:57:41.867Z,7.87
2022-11-14T08:00:29.344Z,7.84
2022-11-14T08:03:14.643Z,7.86
2022-11-14T08:06:07.749Z,7.89
2022-11-14T08:08:52.735Z,7.93
2022-11-14T08:11:49.815Z,7.97
2022-11-14T08:14:35.351Z,8.00
2022-11-14T08:17:22.246Z,8.05
2022-11-14T08:20:09.269Z,8.08
2022-11-14T08:23:01.213Z,8.14
2022-11-14T08:25:46.716Z,8.24
2022-11-14T08:28:31.918Z,8.29
2022-11-14T08:31:17.336Z,8.36
2022-11-14T08:34:02.724Z,8.47
2022-11-14T08:36:48.256Z,8.57
2022-11-14T08:39:33.336Z,8.63
2022-11-14T08:42:18.272Z,8.67
2022-11-14T08:45:04.666Z,8.66
2022-11-14T08:47:53.410Z,8.56
2022-11-14T08:50:38.956Z,8.45
2022-11-14T08:53:24.214Z,8.38
2022-11-14T08:56:10.773Z,8.33
2022-11-14T08:58:56.118Z,8.32
2022-11-14T09:01:41.219Z,8.30
2022-11-14T09:04:26.289Z,8.38
2022-11-14T09:07:11.815Z,8.46
2022-11-14T09:09:57.167Z,8.54
2022-11-14T09:12:42.253Z,8.57
2022-11-14T09:15:28.555Z,8.60
2022-11-14T09:18:13.975Z,8.64
2022-11-14T09:21:04.169Z,8.62
2022-11-14T09:23:49.571Z,8.54
2022-11-14T09:26:34.775Z,8.49
2022-11-14T09:29:19.897Z,8.38
2022-11-14T09:32:05.143Z,8.30
2022-11-14T09:34:50.128Z,8.22
2022-11-14T09:37:35.257Z,8.20
2022-11-14T09:40:20.350Z,8.19
2022-11-14T09:43:39.329Z,8.20
2022-11-14T09:46:47.280Z,8.21
2022-11-14T09:49:44.609Z,8.24
2022-11-14T09:52:36.848Z,8.26
2022-11-14T09:55:30.993Z,8.30
2022-11-14T09:58:20.824Z,8.34
2022-11-14T10:01:16.785Z,8.35
2022-11-14T10:04:28.621Z,8.39
2022-11-14T10:07:46.139Z,8.43
2022-11-14T10:10:49.010Z,8.45
2022-11-14T10:14:03.222Z,8.46
2022-11-14T10:16:48.108Z,8.47
2022-11-14T10:19:42.703Z,8.48
2022-11-14T10:22:49.351Z,8.50
2022-11-14T10:25:49.440Z,8.52
2022-11-14T10:28:59.281Z,8.57
2022-11-14T10:32:06.290Z,8.58
2022-11-14T10:35:02.341Z,8.63
2022-11-14T10:38:05.827Z,8.66
2022-11-14T10:40:54.276Z,8.70
2022-11-14T10:43:48.377Z,8.71
2022-11-14T10:46:38.353Z,8.72
2022-11-14T10:49:25.653Z,8.75
2022-11-14T10:52:18.127Z,8.75
2022-11-14T10:55:18.149Z,8.77
2022-11-14T10:58:10.440Z,8.79
2022-11-14T11:00:55.913Z,8.81
2022-11-14T11:03:44.835Z,8.84
2022-11-14T11:06:30.371Z,8.84
2022-11-14T11:09:45.242Z,8.87
2022-11-14T11:12:37.338Z,8.91
2022-11-14T11:15:31.574Z,8.95
2022-11-14T11:18:29.111Z,8.94
2022-11-14T11:21:16.874Z,8.95
2022-11-14T11:24:02.375Z,8.97
2022-11-14T11:26:47.678Z,8.99
2022-11-14T11:29:32.865Z,8.99
2022-11-14T11:32:29.179Z,9.01
2022-11-14T11:35:16.740Z,9.02
2022-11-14T11:38:03.273Z,9.05
2022-11-14T11:40:53.010Z,9.07
2022-11-14T11:44:02.648Z,9.09
2022-11-14T11:46:57.676Z,9.10
2022-11-14T11:49:53.051Z,9.11
2022-11-14T11:53:02.550Z,9.12
2022-11-14T11:55:52.330Z,9.14
2022-11-14T11:58:47.888Z,9.17
2022-11-14T12:01:33.052Z,9.22
2022-11-14T12:04:18.448Z,9.26
2022-11-14T12:07:43.954Z,9.26
2022-11-14T12:10:32.939Z,9.30
2022-11-14T12:13:42.997Z,9.32
2022-11-14T12:16:49.536Z,9.37
2022-11-14T12:20:02.243Z,9.40
2022-11-14T12:23:12.090Z,9.43
2022-11-14T12:26:15.318Z,9.47
2022-11-14T12:29:17.181Z,9.50
2022-11-14T12:32:07.087Z,9.53
2022-11-14T12:34:52.476Z,9.55
2022-11-14T12:37:47.391Z,9.57
2022-11-14T12:40:39.511Z,9.60
2022-11-14T12:43:45.112Z,9.64
2022-11-14T12:47:05.884Z,9.68
2022-11-14T12:49:53.876Z,9.71
2022-11-14T12:52:48.491Z,9.75
2022-11-14T12:55:36.380Z,9.76
2022-11-14T12:58:24.375Z,9.82
2022-11-14T13:01:31.867Z,9.84
2022-11-14T13:04:37.466Z,9.86
2022-11-14T13:07:32.954Z,9.90
2022-11-14T13:10:36.625Z,9.93
2022-11-14T13:13:42.594Z,9.95
2022-11-14T13:16:51.402Z,9.95
2022-11-14T13:20:04.194Z,9.98
2022-11-14T13:22:49.349Z,10.00
2022-11-14T13:25:34.779Z,10.01
2022-11-14T13:28:38.190Z,10.01
2022-11-14T13:31:35.455Z,10.04
2022-11-14T13:34:37.222Z,10.04
2022-11-14T13:37:46.912Z,10.03
2022-11-14T13:40:55.442Z,10.02
2022-11-14T13:43:57.418Z,10.02
2022-11-14T13:47:03.556Z,10.03
2022-11-14T13:50:40.594Z,10.01
2022-11-14T13:53:31.861Z,10.03
2022-11-14T13:56:32.603Z,10.01
2022-11-14T13:59:54.988Z,10.00
2022-11-14T14:03:10.718Z,9.99
2022-11-14T14:06:17.088Z,9.96
2022-11-14T14:09:26.105Z,9.94
2022-11-14T14:12:43.271Z,9.92
2022-11-14T14:15:42.096Z,9.90
2022-11-14T14:18:59.676Z,9.89
2022-11-14T14:21:52.184Z,9.86
2022-11-14T14:24:53.231Z,9.87
2022-11-14T14:28:15.211Z,9.85
2022-11-14T14:31:03.330Z,9.83
2022-11-14T14:33:51.175Z,9.82
2022-11-14T14:36:36.400Z,9.82
2022-11-14T14:39:25.270Z,9.80
2022-11-14T14:42:11.430Z,9.77
2022-11-14T14:44:57.885Z,9.75
2022-11-14T14:47:46.415Z,9.73
2022-11-14T14:50:38.223Z,9.71
2022-11-14T14:53:29.904Z,9.71
2022-11-14T14:56:21.973Z,9.67
2022-11-14T14:59:24.817Z,9.64
2022-11-14T15:02:18.482Z,9.59
2022-11-14T15:05:05.517Z,9.57
2022-11-14T15:07:53.505Z,9.53
2022-11-14T15:10:39.861Z,9.49
2022-11-14T15:13:27.415Z,9.46
2022-11-14T15:16:13.379Z,9.40
2022-11-14T15:18:59.851Z,9.37
2022-11-14T15:21:45.133Z,9.32
2022-11-14T15:24:30.977Z,9.27
2022-11-14T15:27:19.246Z,9.21
2022-11-14T15:30:07.333Z,9.17
2022-11-14T15:32:58.009Z,9.12
2022-11-14T15:35:42.888Z,9.05
2022-11-14T15:38:44.741Z,9.01
2022-11-14T15:41:31.955Z,8.96
2022-11-14T15:44:31.989Z,8.93
2022-11-14T15:47:39.202Z,8.88
2022-11-14T15:50:35.187Z,8.84
2022-11-14T15:53:20.564Z,8.80
2022-11-14T15:56:05.621Z,8.75
2022-11-14T15:58:51.289Z,8.69
2022-11-14T16:01:37.149Z,8.66
2022-11-14T16:04:28.576Z,8.61
2022-11-14T16:07:15.459Z,8.58
2022-11-14T16:10:00.422Z,8.54
2022-11-14T16:12:49.478Z,8.51
2022-11-14T16:15:37.466Z,8.51
2022-11-14T16:18:24.900Z,8.48
2022-11-14T16:21:18.406Z,8.45
2022-11-14T16:24:04.528Z,8.42
2022-11-14T16:26:50.185Z,8.40
2022-11-14T16:29:35.698Z,8.39
2022-11-14T16:32:20.733Z,8.37
2022-11-14T16:35:12.211Z,8.35
2022-11-14T16:37:57.266Z,8.34
2022-11-14T16:40:44.609Z,8.30
2022-11-14T16:43:30.104Z,8.30
2022-11-14T16:46:16.059Z,8.28
2022-11-14T16:49:01.072Z,8.25
2022-11-14T16:51:50.771Z,8.24
2022-11-14T16:54:36.519Z,8.22
2022-11-14T16:57:21.810Z,8.20
2022-11-14T17:00:10.688Z,8.19
2022-11-14T17:02:56.458Z,8.16
2022-11-14T17:05:50.273Z,8.13
2022-11-14T17:08:35.307Z,8.11
2022-11-14T17:11:20.566Z,8.10
2022-11-14T17:14:06.183Z,8.09
2022-11-14T17:16:51.873Z,8.07
2022-11-14T17:19:39.112Z,8.04
2022-11-14T17:22:24.605Z,8.01
2022-11-14T17:25:10.267Z,7.99
2022-11-14T17:27:55.611Z,7.97
2022-11-14T17:30:42.567Z,7.97
2022-11-14T17:33:27.968Z,7.96
2022-11-14T17:36:14.150Z,7.93
2022-11-14T17:38:59.518Z,7.90
2022-11-14T17:41:44.478Z,7.88
2022-11-14T17:44:29.388Z,7.85
2022-11-14T17:47:14.504Z,7.82
2022-11-14T17:49:59.848Z,7.78
2022-11-14T17:52:44.908Z,7.77
2022-11-14T17:55:30.535Z,7.74
2022-11-14T17:58:15.314Z,7.71
2022-11-14T18:01:00.799Z,7.67
2022-11-14T18:03:46.207Z,7.63
2022-11-14T18:06:31.302Z,7.60
2022-11-14T18:09:16.536Z,7.56
2022-11-14T18:12:01.806Z,7.52
2022-11-14T18:14:46.677Z,7.48
2022-11-14T18:17:31.851Z,7.46
2022-11-14T18:20:17.339Z,7.43
2022-11-14T18:23:02.826Z,7.40
2022-11-14T18:25:48.912Z,7.35
2022-11-14T18:28:34.480Z,7.33
2022-11-14T18:31:19.873Z,7.30
2022-11-14T18:34:05.339Z,7.27
2022-11-14T18:36:50.617Z,7.25
2022-11-14T18:39:35.975Z,7.22
2022-11-14T18:42:21.033Z,7.20
2022-11-14T18:45:06.807Z,7.19
2022-11-14T18:47:54.739Z,7.17
2022-11-14T18:50:39.636Z,7.15
2022-11-14T18:53:24.676Z,7.13
2022-11-14T18:56:13.071Z,7.13
2022-11-14T18:58:58.456Z,7.15
2022-11-14T19:01:44.335Z,7.14
2022-11-14T19:04:29.698Z,7.14
2022-11-14T19:07:15.305Z,7.15
2022-11-14T19:10:00.761Z,7.14
2022-11-14T19:12:49.060Z,7.14
2022-11-14T19:15:35.207Z,7.13
2022-11-14T19:18:22.115Z,7.13
2022-11-14T19:21:07.302Z,7.13
2022-11-14T19:23:56.624Z,7.13
2022-11-14T19:26:41.717Z,7.13
2022-11-14T19:29:26.756Z,7.12
2022-11-14T19:32:12.401Z,7.09
2022-11-14T19:39:03.918Z,7.03
2022-11-14T19:41:48.573Z,6.99
2022-11-14T19:44:33.437Z,6.98
2022-11-14T19:47:18.006Z,6.94
2022-11-14T19:50:02.829Z,6.94
2022-11-14T19:52:47.445Z,6.94
2022-11-14T19:55:32.216Z,6.95
2022-11-14T19:58:17.546Z,6.95
2022-11-14T20:01:04.606Z,6.94
2022-11-14T20:03:51.881Z,6.95
2022-11-14T20:06:37.441Z,6.98
2022-11-14T20:09:22.756Z,6.95
2022-11-14T20:12:08.086Z,6.94
2022-11-14T20:14:53.634Z,6.93
2022-11-14T20:17:38.977Z,6.93
2022-11-14T20:20:23.950Z,6.92
2022-11-14T20:23:09.795Z,6.92
2022-11-14T20:25:55.102Z,6.92
2022-11-14T20:28:41.664Z,6.90
2022-11-14T20:31:29.688Z,6.90
2022-11-14T20:34:15.334Z,6.90
2022-11-14T20:37:15.924Z,6.89
2022-11-14T20:40:01.169Z,6.88
2022-11-14T20:42:49.532Z,6.86
2022-11-14T20:45:34.551Z,6.84
2022-11-14T20:48:19.587Z,6.82
2022-11-14T20:51:25.585Z,6.81
2022-11-14T20:54:10.861Z,6.81
2022-11-14T20:56:56.275Z,6.80
2022-11-14T20:59:41.464Z,6.81
2022-11-14T21:02:26.631Z,6.81
2022-11-14T21:05:12.006Z,6.81
2022-11-14T21:07:57.251Z,6.83
2022-11-14T21:10:48.061Z,6.84
2022-11-14T21:13:56.993Z,6.87
2022-11-14T21:16:42.649Z,6.92
2022-11-14T21:19:29.323Z,6.91
2022-11-14T21:22:14.653Z,6.91
2022-11-14T21:25:00.676Z,6.92
2022-11-14T21:27:46.070Z,6.93
2022-11-14T21:30:32.528Z,6.95
2022-11-14T21:33:20.460Z,6.99
2022-11-14T21:36:22.931Z,7.05
2022-11-14T21:39:14.965Z,7.15
2022-11-14T21:42:00.880Z,7.22
2022-11-14T21:44:45.896Z,7.27
2022-11-14T21:47:30.898Z,7.29
2022-11-14T21:50:16.634Z,7.27
2022-11-14T21:53:02.558Z,7.25
2022-11-14T21:55:48.302Z,7.23
2022-11-14T21:58:33.569Z,7.19
2022-11-14T22:01:53.532Z,7.19
2022-11-14T22:04:39.020Z,7.15
2022-11-14T22:07:24.678Z,7.12
2022-11-14T22:10:10.037Z,7.09
2022-11-14T22:12:55.084Z,7.04
2022-11-14T22:15:40.329Z,7.02
2022-11-14T22:18:25.615Z,7.06
2022-11-14T22:21:11.349Z,7.10
2022-11-14T22:23:56.524Z,7.16
2022-11-14T22:26:41.993Z,7.22
2022-11-14T22:29:27.019Z,7.20
2022-11-14T22:32:12.058Z,7.20
2022-11-14T22:34:57.256Z,7.20
2022-11-14T22:37:42.252Z,7.26
2022-11-14T22:40:27.650Z,7.38
2022-11-14T22:43:12.613Z,7.51
2022-11-14T22:45:59.879Z,7.60
2022-11-14T22:48:45.899Z,7.58
2022-11-14T22:51:31.864Z,7.52
2022-11-14T22:54:16.987Z,7.45
2022-11-14T22:57:02.273Z,7.36
2022-11-14T22:59:47.606Z,7.30
2022-11-14T23:02:32.598Z,7.26
2022-11-14T23:05:17.611Z,7.25
2022-11-14T23:08:03.206Z,7.25
2022-11-14T23:10:48.968Z,7.23
2022-11-14T23:13:42.548Z,7.28
2022-11-14T23:16:30.412Z,7.34
2022-11-14T23:19:15.697Z,7.36
2022-11-14T23:22:00.937Z,7.32
2022-11-14T23:24:46.310Z,7.28
2022-11-14T23:27:32.215Z,7.26
2022-11-14T23:30:17.641Z,7.28
2022-11-14T23:33:02.953Z,7.30
2022-11-14T23:35:47.969Z,7.26
2022-11-14T23:38:33.486Z,7.32
2022-11-14T23:41:25.511Z,7.41
2022-11-14T23:44:10.890Z,7.41
2022-11-14T23:46:56.010Z,7.41
2022-11-14T23:49:41.019Z,7.33
2022-11-14T23:52:26.063Z,7.22
2022-11-14T23:55:11.206Z,7.12
2022-11-14T23:57:56.190Z,7.04
